Time;durP1;ratioP1;P1;durP2;ratioP2;P2;SDS_P1;SDS_P2;PMS_P1;PMS_P2;Temp;Humidity;BMP_temperature;BMP_pressure;BME280_temperature;BME280_humidity;BME280_pressure;Samples;Min_cycle;Max_cycle;Signal;HPM_P1;HPM_P2
2021/07/01 00:04:39;;;;;;;9.23;4.03;;;;;;;14.25;86.71;100351.97;20656235;28;20051;-68
2021/07/01 00:14:41;;;;;;;9.73;4.70;;;;;;;14.27;86.17;100346.63;20658346;28;20050;-67
2021/07/01 00:24:43;;;;;;;8.38;4.35;;;;;;;14.26;86.87;100353.69;20649908;28;20150;-68
2021/07/01 00:34:45;;;;;;;7.80;4.60;;;;;;;14.24;87.15;100363.41;20656816;28;20109;-68
2021/07/01 00:44:46;;;;;;;7.80;3.95;;;;;;;14.27;86.60;100367.69;20647566;28;20559;-69
2021/07/01 00:54:48;;;;;;;9.45;4.35;;;;;;;14.23;86.06;100366.06;20647976;28;20042;-68
2021/07/01 01:04:50;;;;;;;6.93;3.60;;;;;;;14.28;86.33;100366.81;20655110;28;20169;-69
2021/07/01 01:14:52;;;;;;;10.25;4.40;;;;;;;14.32;85.08;100360.50;20655013;28;20116;-69
2021/07/01 01:24:53;;;;;;;7.68;4.53;;;;;;;14.21;86.82;100357.38;20645885;28;20456;-69
2021/07/01 01:34:55;;;;;;;7.63;3.65;;;;;;;14.28;86.78;100356.28;20653334;28;20081;-68
2021/07/01 01:44:57;;;;;;;8.43;4.47;;;;;;;14.25;86.73;100356.38;20654293;28;20480;-69
2021/07/01 01:54:59;;;;;;;8.98;5.07;;;;;;;14.25;86.34;100353.72;20654411;28;20047;-70
2021/07/01 02:05:00;;;;;;;8.68;4.47;;;;;;;14.21;86.73;100368.75;20667091;28;20081;-69
2021/07/01 02:15:05;;;;;;;9.32;5.28;;;;;;;14.19;86.45;100364.47;20681391;28;20506;-69
2021/07/01 02:25:08;;;;;;;10.33;5.23;;;;;;;14.16;86.52;100370.69;20682791;28;20043;-69
2021/07/01 02:35:10;;;;;;;10.77;5.75;;;;;;;14.14;86.49;100369.03;20665050;28;20452;-70
2021/07/01 02:45:12;;;;;;;11.27;5.85;;;;;;;14.29;86.20;100374.66;20664457;28;20073;-69
2021/07/01 02:55:14;;;;;;;10.18;5.45;;;;;;;14.24;86.69;100378.34;20655073;28;20042;-69
2021/07/01 03:05:16;;;;;;;11.23;5.45;;;;;;;14.17;86.81;100376.81;20662239;28;20046;-69
2021/07/01 03:15:17;;;;;;;8.25;5.15;;;;;;;14.25;86.59;100385.34;20662183;28;20062;-69
2021/07/01 03:25:20;;;;;;;9.60;5.85;;;;;;;14.25;86.62;100364.28;20653188;28;20096;-70
2021/07/01 03:35:21;;;;;;;11.18;5.40;;;;;;;14.21;85.86;100365.28;20659237;28;20493;-69
2021/07/01 03:45:23;;;;;;;10.68;5.63;;;;;;;14.18;86.25;100387.31;20660020;28;20051;-70
2021/07/01 03:55:25;;;;;;;10.93;5.97;;;;;;;14.04;86.99;100381.59;20659139;28;20058;-68
2021/07/01 04:05:26;;;;;;;14.48;6.75;;;;;;;14.02;87.79;100383.41;20654045;28;20054;-69
2021/07/01 04:15:28;;;;;;;10.63;6.20;;;;;;;14.07;87.21;100386.75;20655514;28;20050;-70
2021/07/01 04:25:30;;;;;;;9.77;5.85;;;;;;;14.04;87.60;100400.88;20637839;28;20050;-70
2021/07/01 04:35:31;;;;;;;8.05;5.00;;;;;;;14.26;87.30;100394.94;20655467;28;20144;-70
2021/07/01 04:45:33;;;;;;;11.77;5.72;;;;;;;14.37;86.19;100388.47;20656032;28;20052;-69
2021/07/01 04:55:35;;;;;;;11.23;5.65;;;;;;;14.43;85.98;100390.03;20655150;28;20499;-69
2021/07/01 05:05:37;;;;;;;7.90;4.78;;;;;;;14.44;85.98;100391.75;20655311;28;20464;-69
2021/07/01 05:15:39;;;;;;;11.05;5.25;;;;;;;14.32;85.83;100378.94;20654457;28;20050;-69
2021/07/01 05:25:40;;;;;;;8.07;5.00;;;;;;;14.55;85.28;100378.25;20657486;28;20413;-69
2021/07/01 05:35:42;;;;;;;11.55;4.30;;;;;;;14.49;85.06;100395.13;20668572;28;20049;-69
2021/07/01 05:45:44;;;;;;;10.38;4.57;;;;;;;14.60;85.38;100402.69;20668853;28;20074;-69
2021/07/01 05:55:46;;;;;;;11.35;4.57;;;;;;;14.82;84.07;100410.75;20668507;28;20582;-71
2021/07/01 06:05:55;;;;;;;7.90;4.05;;;;;;;14.82;84.10;100418.69;20667279;28;20042;-71
2021/07/01 06:15:57;;;;;;;13.30;4.25;;;;;;;15.12;83.25;100428.19;20665751;28;20059;-70
2021/07/01 06:26:00;;;;;;;7.10;3.67;;;;;;;15.33;82.23;100417.81;20665512;28;20440;-70
2021/07/01 06:36:02;;;;;;;9.30;3.95;;;;;;;15.71;80.29;100427.03;20664190;28;20104;-69
2021/07/01 06:46:06;;;;;;;9.68;4.05;;;;;;;16.08;79.11;100429.16;20664153;28;20046;-71
2021/07/01 06:56:09;;;;;;;;;;;;;;;15.91;79.30;100436.88;20664958;28;20093;-70
2021/07/01 07:06:11;;;;;;;9.38;3.30;;;;;;;16.07;78.61;100443.28;20656199;28;20327;-70
2021/07/01 07:16:13;;;;;;;4.85;2.58;;;;;;;15.94;77.84;100454.38;20648563;28;20145;-70
2021/07/01 07:26:21;;;;;;;6.68;2.95;;;;;;;16.12;76.65;100462.47;20648521;28;20046;-70
2021/07/01 07:36:26;;;;;;;7.40;2.92;;;;;;;16.38;76.20;100460.59;20660425;28;20668;-69
2021/07/01 07:46:29;;;;;;;8.77;3.30;;;;;;;17.01;75.06;100445.78;20660657;28;20644;-70
2021/07/01 07:56:36;;;;;;;6.47;2.63;;;;;;;16.58;74.83;100444.84;20659045;28;20046;-70
2021/07/01 08:06:43;;;;;;;3.88;1.95;;;;;;;16.77;73.83;100445.00;20659552;28;20050;-69
2021/07/01 08:16:45;;;;;;;2.97;1.48;;;;;;;16.57;73.51;100445.75;20659473;28;20105;-70
2021/07/01 08:26:50;;;;;;;4.38;1.95;;;;;;;16.97;70.98;100449.47;20659669;28;20112;-69
2021/07/01 08:36:53;;;;;;;3.97;1.80;;;;;;;16.80;72.87;100451.94;20656620;28;20045;-70
2021/07/01 08:47:18;;;;;;;3.88;1.90;;;;;;;16.01;77.83;100477.00;20657099;28;20050;-70
2021/07/01 08:57:27;;;;;;;4.28;2.40;;;;;;;15.90;79.30;100469.47;20656756;28;20042;-70
2021/07/01 09:07:28;;;;;;;4.13;2.17;;;;;;;16.14;78.35;100476.50;20669651;28;20535;-70
2021/07/01 09:17:33;;;;;;;4.57;2.30;;;;;;;16.20;78.10;100487.75;20672088;28;20085;-70
2021/07/01 09:27:42;;;;;;;5.68;2.40;;;;;;;16.10;76.87;100493.38;20670454;28;20169;-70
2021/07/01 09:37:46;;;;;;;5.55;2.50;;;;;;;16.34;76.61;100502.16;20669116;28;20125;-70
2021/07/01 09:47:53;;;;;;;5.03;2.50;;;;;;;16.23;78.32;100506.13;20667151;28;20108;-70
2021/07/01 09:57:59;;;;;;;5.35;2.10;;;;;;;16.48;78.45;100508.69;20669305;28;20047;-69
2021/07/01 10:08:01;;;;;;;3.65;2.25;;;;;;;16.15;75.87;100512.56;20667078;28;20042;-69
2021/07/01 10:18:23;;;;;;;4.93;2.70;;;;;;;16.33;76.96;100510.13;20666251;28;20563;-70
2021/07/01 10:28:30;;;;;;;6.28;3.13;;;;;;;16.39;79.61;100509.91;20666826;28;20042;-69
2021/07/01 10:38:43;;;;;;;5.27;2.83;;;;;;;16.34;79.05;100510.09;20665009;28;20053;-70
2021/07/01 10:48:56;;;;;;;5.35;2.90;;;;;;;16.48;79.24;100506.94;20663150;28;20113;-69
2021/07/01 10:58:58;;;;;;;6.20;3.10;;;;;;;16.65;76.02;100508.91;20660789;28;20049;-69
2021/07/01 11:09:00;;;;;;;5.20;2.63;;;;;;;17.03;77.55;100523.28;20662188;28;20088;-69
2021/07/01 11:19:11;;;;;;;4.18;2.28;;;;;;;16.99;74.38;100504.94;20662710;28;20046;-70
2021/07/01 11:29:12;;;;;;;3.70;2.25;;;;;;;18.52;67.72;100490.34;20614433;28;20101;-70
2021/07/01 11:39:17;;;;;;;4.32;2.35;;;;;;;18.10;67.50;100486.94;20659296;28;20408;-70
2021/07/01 11:49:21;;;;;;;4.47;2.50;;;;;;;17.43;70.29;100500.47;20660813;28;20137;-69
2021/07/01 11:59:28;;;;;;;5.87;2.60;;;;;;;17.01;70.14;100517.22;20659796;28;20042;-70
2021/07/01 12:09:31;;;;;;;5.40;2.40;;;;;;;16.28;71.81;100538.50;20659066;28;20073;-70
2021/07/01 12:19:53;;;;;;;5.10;2.50;;;;;;;16.17;71.73;100537.13;20660300;28;20113;-70
2021/07/01 12:29:56;;;;;;;6.18;2.60;;;;;;;16.42;70.83;100541.50;20678296;28;20046;-68
2021/07/01 12:39:59;;;;;;;4.43;2.55;;;;;;;16.59;70.54;100549.66;20674525;28;20108;-68
2021/07/01 12:50:06;;;;;;;8.90;3.20;;;;;;;16.91;69.47;100539.63;20656905;28;20046;-69
2021/07/01 13:00:09;;;;;;;6.32;3.22;;;;;;;17.08;69.05;100542.47;20655307;28;20456;-69
2021/07/01 13:10:11;;;;;;;5.78;3.03;;;;;;;16.88;70.10;100551.22;20655378;28;20043;-69
2021/07/01 13:20:14;;;;;;;6.00;2.97;;;;;;;17.02;70.00;100550.66;20656510;28;20062;-69
2021/07/01 13:30:37;;;;;;;6.18;3.40;;;;;;;17.47;67.84;100549.69;20654553;28;20093;-69
2021/07/01 13:40:41;;;;;;;5.50;3.10;;;;;;;17.53;67.11;100538.84;20655808;28;20089;-69
2021/07/01 13:50:44;;;;;;;6.93;2.97;;;;;;;17.83;66.17;100535.88;20663848;28;20046;-69
2021/07/01 14:00:51;;;;;;;5.60;3.00;;;;;;;18.46;64.88;100533.91;20668936;28;20053;-69
2021/07/01 14:11:09;;;;;;;7.10;3.05;;;;;;;18.72;63.74;100530.06;20590481;28;20043;-69
2021/07/01 14:21:11;;;;;;;5.50;2.67;;;;;;;19.06;61.25;100536.41;20663590;28;20054;-69
2021/07/01 14:31:18;;;;;;;6.97;2.45;;;;;;;19.11;60.38;100540.53;20666462;28;20046;-69
2021/07/01 14:41:29;;;;;;;5.45;2.95;;;;;;;18.81;59.66;100531.41;20666130;28;20121;-70
2021/07/01 14:51:43;;;;;;;5.28;2.83;;;;;;;18.30;62.41;100533.75;20665706;28;20568;-71
2021/07/01 15:01:56;;;;;;;5.93;2.90;;;;;;;18.25;62.44;100540.16;20662501;28;20567;-71
2021/07/01 15:11:58;;;;;;;6.53;2.40;;;;;;;18.36;62.92;100536.13;20594978;28;20066;-71
2021/07/01 15:22:00;;;;;;;5.85;2.60;;;;;;;18.52;61.61;100536.25;20663187;28;20069;-71
2021/07/01 15:32:03;;;;;;;5.30;2.70;;;;;;;18.86;60.46;100545.31;20661895;28;20042;-71
2021/07/01 15:42:10;;;;;;;4.43;2.72;;;;;;;18.91;60.56;100535.34;20661120;28;20452;-71
2021/07/01 15:52:12;;;;;;;5.88;2.75;;;;;;;18.81;60.92;100537.56;20660288;28;20108;-72
2021/07/01 16:02:14;;;;;;;6.68;2.55;;;;;;;19.37;59.02;100527.78;20659934;28;20088;-71
2021/07/01 16:12:16;;;;;;;5.57;2.58;;;;;;;18.75;60.74;100537.03;20658834;28;20046;-71
2021/07/01 16:22:20;;;;;;;5.13;2.67;;;;;;;18.48;62.10;100532.03;20618780;28;20058;-71
2021/07/01 16:32:23;;;;;;;5.82;2.92;;;;;;;18.31;64.07;100526.66;20606190;28;20038;-72
2021/07/01 16:42:27;;;;;;;5.50;3.33;;;;;;;18.19;64.53;100526.28;20653137;28;20540;-72
2021/07/01 16:52:34;;;;;;;5.82;3.13;;;;;;;17.98;64.95;100523.75;20654939;28;20046;-71
2021/07/01 17:02:38;;;;;;;6.90;3.08;;;;;;;18.04;64.92;100519.00;20656344;28;20053;-72
2021/07/01 17:12:41;;;;;;;6.28;3.67;;;;;;;18.11;64.99;100519.59;20656713;28;20054;-71
2021/07/01 17:22:45;;;;;;;4.97;2.85;;;;;;;18.29;63.79;100508.16;20660831;28;20109;-71
2021/07/01 17:32:51;;;;;;;6.95;3.05;;;;;;;18.34;64.20;100507.94;20591469;28;20051;-71
2021/07/01 17:42:55;;;;;;;6.70;3.30;;;;;;;18.55;64.40;100509.63;20594239;28;20055;-73
2021/07/01 17:52:57;;;;;;;5.88;2.97;;;;;;;18.49;64.02;100509.88;20612373;28;20050;-71
2021/07/01 18:03:01;;;;;;;5.88;2.90;;;;;;;18.35;66.23;100507.00;20669124;28;20428;-72
2021/07/01 18:13:02;;;;;;;7.60;3.40;;;;;;;17.93;67.35;100508.91;20668590;28;20057;-72
2021/07/01 18:23:07;;;;;;;7.32;3.47;;;;;;;17.86;68.17;100502.13;20667116;28;20042;-71
2021/07/01 18:33:08;;;;;;;6.43;2.87;;;;;;;17.92;67.73;100511.63;20666321;28;20070;-72
2021/07/01 18:43:11;;;;;;;6.82;3.40;;;;;;;17.77;68.49;100514.94;20666999;28;20058;-71
2021/07/01 18:53:12;;;;;;;8.23;3.60;;;;;;;17.43;70.81;100527.78;20667711;28;20046;-72
2021/07/01 19:03:14;;;;;;;6.93;3.67;;;;;;;17.04;73.97;100532.94;20664241;28;20487;-72
2021/07/01 19:13:16;;;;;;;6.78;3.75;;;;;;;16.74;75.94;100542.97;20664437;28;20178;-72
2021/07/01 19:23:18;;;;;;;9.63;4.25;;;;;;;16.58;76.38;100542.66;20655945;28;20483;-72
2021/07/01 19:33:20;;;;;;;6.78;4.05;;;;;;;16.48;77.42;100545.69;20661790;28;20069;-73
2021/07/01 19:43:22;;;;;;;9.00;4.97;;;;;;;16.28;78.47;100549.06;20661499;28;20042;-71
2021/07/01 19:53:25;;;;;;;7.68;4.60;;;;;;;15.93;78.57;100564.41;20661346;28;20088;-71
2021/07/01 20:03:26;;;;;;;7.53;4.22;;;;;;;15.80;78.88;100569.25;20659203;28;20043;-72
2021/07/01 20:13:28;;;;;;;8.98;4.63;;;;;;;15.87;79.70;100572.56;20608571;28;20050;-74
2021/07/01 20:23:31;;;;;;;8.23;4.78;;;;;;;16.01;79.52;100586.16;20657646;28;20054;-71
2021/07/01 20:33:33;;;;;;;9.52;5.20;;;;;;;16.00;79.50;100578.25;20655018;28;20050;-72
2021/07/01 20:43:34;;;;;;;7.60;3.95;;;;;;;16.01;80.06;100572.09;20657448;28;20547;-72
2021/07/01 20:53:36;;;;;;;9.25;5.30;;;;;;;16.00;81.54;100573.88;20657489;28;20124;-72
2021/07/01 21:03:38;;;;;;;10.23;5.07;;;;;;;15.92;81.30;100577.69;20673169;28;20448;-71
2021/07/01 21:13:41;;;;;;;8.68;4.60;;;;;;;15.67;82.54;100570.63;20673293;28;20104;-69
2021/07/01 21:23:43;;;;;;;13.07;5.15;;;;;;;15.49;83.31;100569.41;20672542;28;20046;-70
2021/07/01 21:33:44;;;;;;;9.82;4.80;;;;;;;15.43;83.47;100569.63;20672619;28;20073;-68
2021/07/01 21:43:50;;;;;;;9.48;4.68;;;;;;;15.32;83.37;100571.72;20671911;28;20050;-69
2021/07/01 21:53:54;;;;;;;7.40;4.13;;;;;;;15.34;82.77;100570.78;20670905;28;20178;-71
2021/07/01 22:03:56;;;;;;;8.85;5.05;;;;;;;15.31;82.55;100575.28;20669275;28;20493;-67
2021/07/01 22:14:01;;;;;;;7.85;4.93;;;;;;;15.28;82.68;100575.38;20660718;28;20043;-68
2021/07/01 22:24:03;;;;;;;10.35;5.15;;;;;;;15.18;82.43;100573.94;20665988;28;20047;-68
2021/07/01 22:34:06;;;;;;;11.20;5.25;;;;;;;15.19;82.38;100575.66;20665628;28;20046;-69
2021/07/01 22:44:08;;;;;;;9.60;5.32;;;;;;;15.18;81.81;100573.94;20670229;28;20084;-68
2021/07/01 22:54:10;;;;;;;8.55;4.45;;;;;;;15.14;82.46;100574.06;20685973;28;20046;-71
2021/07/01 23:04:12;;;;;;;8.77;5.05;;;;;;;15.11;82.56;100579.44;20664168;28;20054;-71
2021/07/01 23:14:14;;;;;;;10.40;5.13;;;;;;;15.09;82.43;100569.81;20655556;28;20061;-71
2021/07/01 23:24:16;;;;;;;8.57;5.03;;;;;;;15.02;81.38;100563.91;20649165;28;20055;-71
2021/07/01 23:34:19;;;;;;;10.35;5.82;;;;;;;14.89;82.42;100573.94;20661239;28;20046;-68
2021/07/01 23:44:21;;;;;;;10.98;6.30;;;;;;;14.84;81.92;100569.72;20661162;28;20540;-68
2021/07/01 23:54:23;;;;;;;11.55;6.22;;;;;;;14.74;82.11;100557.75;20660388;28;20092;-68
